createdAt,value
2018-08-16T00:00:18.427Z,1017.99
2018-08-16T00:01:18.454Z,1018.00
2018-08-16T00:02:18.482Z,1018.01
2018-08-16T00:03:18.506Z,1018.00
2018-08-16T00:04:18.532Z,1017.98
2018-08-16T00:05:18.554Z,1017.98
2018-08-16T00:06:18.585Z,1017.98
2018-08-16T00:07:18.607Z,1017.98
2018-08-16T00:08:18.630Z,1017.98
2018-08-16T00:09:18.651Z,1017.96
2018-08-16T00:10:18.678Z,1017.95
2018-08-16T00:11:18.710Z,1017.97
2018-08-16T00:12:18.732Z,1017.98
2018-08-16T00:13:18.754Z,1018.01
2018-08-16T00:14:18.780Z,1018.00
2018-08-16T00:15:18.806Z,1018.02
2018-08-16T00:16:18.839Z,1017.96
2018-08-16T00:17:18.850Z,1017.98
2018-08-16T00:18:18.878Z,1017.96
2018-08-16T00:19:18.904Z,1017.98
2018-08-16T00:20:18.930Z,1017.98
2018-08-16T00:21:18.949Z,1017.96
2018-08-16T00:22:18.972Z,1017.98
2018-08-16T00:23:19.000Z,1017.96
2018-08-16T00:24:19.024Z,1017.95
2018-08-16T00:25:19.050Z,1017.98
2018-08-16T00:26:19.074Z,1017.94
2018-08-16T00:27:19.098Z,1017.97
2018-08-16T00:28:19.130Z,1017.93
2018-08-16T00:29:19.155Z,1017.96
2018-08-16T00:30:19.176Z,1017.95
2018-08-16T00:31:19.202Z,1017.94
2018-08-16T00:32:19.224Z,1017.93
2018-08-16T00:33:19.255Z,1017.98
2018-08-16T00:34:19.270Z,1017.95
2018-08-16T00:35:19.300Z,1017.93
2018-08-16T00:36:19.318Z,1017.95
2018-08-16T00:37:19.345Z,1017.95
2018-08-16T00:38:19.370Z,1017.95
2018-08-16T00:39:19.394Z,1017.95
2018-08-16T00:40:19.419Z,1017.92
2018-08-16T00:41:19.444Z,1017.92
2018-08-16T00:42:19.472Z,1017.93
2018-08-16T00:43:19.496Z,1017.89
2018-08-16T00:44:19.523Z,1017.94
2018-08-16T00:45:19.545Z,1017.91
2018-08-16T00:46:19.566Z,1017.93
2018-08-16T00:47:19.593Z,1017.91
2018-08-16T00:48:19.619Z,1017.91
2018-08-16T00:49:19.644Z,1017.97
2018-08-16T00:50:19.664Z,1017.89
2018-08-16T00:51:19.693Z,1017.92
2018-08-16T00:52:19.712Z,1017.94
2018-08-16T00:53:19.739Z,1017.93
2018-08-16T00:54:19.774Z,1017.95
2018-08-16T00:55:19.789Z,1017.95
2018-08-16T00:56:19.816Z,1017.95
2018-08-16T00:57:19.839Z,1017.92
2018-08-16T00:58:19.866Z,1017.89
2018-08-16T00:59:19.890Z,1017.89
2018-08-16T01:00:19.912Z,1017.91
2018-08-16T01:01:19.944Z,1017.91
2018-08-16T01:02:19.959Z,1017.91
2018-08-16T01:03:19.985Z,1017.91
2018-08-16T01:04:20.010Z,1017.90
2018-08-16T01:05:20.038Z,1017.92
2018-08-16T01:06:20.060Z,1017.88
2018-08-16T01:07:20.086Z,1017.89
2018-08-16T01:08:20.110Z,1017.91
2018-08-16T01:09:20.136Z,1017.86
2018-08-16T01:10:20.156Z,1017.89
2018-08-16T01:11:20.184Z,1017.89
2018-08-16T01:12:20.204Z,1017.91
2018-08-16T01:13:20.235Z,1017.86
2018-08-16T01:14:20.258Z,1017.87
2018-08-16T01:15:20.280Z,1017.89
2018-08-16T01:16:20.311Z,1017.90
2018-08-16T01:17:20.330Z,1017.93
2018-08-16T01:18:20.355Z,1017.89
2018-08-16T01:19:20.381Z,1017.89
2018-08-16T01:20:20.525Z,1017.87
2018-08-16T01:21:20.422Z,1017.92
2018-08-16T01:22:20.453Z,1017.92
2018-08-16T01:23:20.480Z,1017.94
2018-08-16T01:24:20.504Z,1017.94
2018-08-16T01:25:20.526Z,1017.92
2018-08-16T01:26:20.551Z,1017.94
2018-08-16T01:27:20.576Z,1017.92
2018-08-16T01:28:20.603Z,1017.92
2018-08-16T01:29:20.624Z,1017.95
2018-08-16T01:30:20.648Z,1017.91
2018-08-16T01:31:20.678Z,1017.94
2018-08-16T01:32:20.908Z,1017.92
2018-08-16T01:33:20.721Z,1017.91
2018-08-16T01:34:20.748Z,1017.87
2018-08-16T01:36:20.793Z,1017.89
2018-08-16T01:37:20.817Z,1017.90
2018-08-16T01:38:20.841Z,1017.90
2018-08-16T01:39:20.877Z,1017.93
2018-08-16T01:40:20.893Z,1017.90
2018-08-16T01:41:20.918Z,1017.95
2018-08-16T01:42:20.942Z,1017.92
2018-08-16T01:43:20.967Z,1017.96
2018-08-16T01:44:20.996Z,1017.96
2018-08-16T01:45:21.015Z,1017.91
2018-08-16T01:46:21.039Z,1017.92
2018-08-16T01:47:21.064Z,1017.91
2018-08-16T01:48:21.087Z,1017.91
2018-08-16T01:49:21.110Z,1017.90
2018-08-16T01:50:21.137Z,1017.91
2018-08-16T01:51:21.160Z,1017.89
2018-08-16T01:52:21.184Z,1017.87
2018-08-16T01:53:21.214Z,1017.92
2018-08-16T01:54:21.232Z,1017.90
2018-08-16T01:55:21.264Z,1017.91
2018-08-16T01:56:21.288Z,1017.91
2018-08-16T01:57:21.309Z,1017.92
2018-08-16T01:58:21.334Z,1017.93
2018-08-16T02:00:49.011Z,1017.92
2018-08-16T02:01:49.030Z,1017.89
2018-08-16T02:02:49.052Z,1017.93
2018-08-16T02:03:49.078Z,1017.90
2018-08-16T02:04:49.101Z,1017.87
2018-08-16T02:05:49.128Z,1017.88
2018-08-16T02:06:49.155Z,1017.88
2018-08-16T02:07:49.176Z,1017.88
2018-08-16T02:08:49.202Z,1017.85
2018-08-16T02:09:49.229Z,1017.83
2018-08-16T02:10:49.250Z,1017.83
2018-08-16T02:11:49.273Z,1017.86
2018-08-16T02:12:49.295Z,1017.81
2018-08-16T02:13:49.321Z,1017.82
2018-08-16T02:14:49.353Z,1017.83
2018-08-16T02:15:49.373Z,1017.84
2018-08-16T02:16:49.601Z,1017.85
2018-08-16T02:17:49.429Z,1017.84
2018-08-16T02:18:49.442Z,1017.84
2018-08-16T02:19:49.471Z,1017.84
2018-08-16T02:20:49.491Z,1017.83
2018-08-16T02:21:49.515Z,1017.83
2018-08-16T02:22:49.540Z,1017.79
2018-08-16T02:23:49.565Z,1017.81
2018-08-16T02:24:49.584Z,1017.81
2018-08-16T02:25:49.610Z,1017.77
2018-08-16T02:26:49.635Z,1017.78
2018-08-16T02:27:49.665Z,1017.78
2018-08-16T02:28:49.686Z,1017.76
2018-08-16T02:29:49.709Z,1017.77
2018-08-16T02:30:49.734Z,1017.75
2018-08-16T02:31:49.761Z,1017.79
2018-08-16T02:32:49.780Z,1017.79
2018-08-16T02:33:49.805Z,1017.77
2018-08-16T02:34:49.830Z,1017.79
2018-08-16T02:35:49.854Z,1017.76
2018-08-16T02:36:49.881Z,1017.73
2018-08-16T02:37:49.901Z,1017.73
2018-08-16T02:38:49.925Z,1017.75
2018-08-16T02:39:49.952Z,1017.69
2018-08-16T02:40:49.987Z,1017.73
2018-08-16T02:41:49.997Z,1017.75
2018-08-16T02:42:50.023Z,1017.73
2018-08-16T02:43:50.044Z,1017.73
2018-08-16T02:44:50.072Z,1017.74
2018-08-16T02:45:50.091Z,1017.76
2018-08-16T02:46:50.120Z,1017.78
2018-08-16T02:47:50.141Z,1017.75
2018-08-16T02:48:50.169Z,1017.73
2018-08-16T02:49:50.195Z,1017.75
2018-08-16T02:50:50.224Z,1017.74
2018-08-16T02:51:50.241Z,1017.76
2018-08-16T02:52:50.265Z,1017.74
2018-08-16T02:53:50.292Z,1017.75
2018-08-16T02:54:50.315Z,1017.73
2018-08-16T02:55:50.331Z,1017.74
2018-08-16T02:56:50.360Z,1017.69
2018-08-16T02:57:50.386Z,1017.70
2018-08-16T02:58:50.409Z,1017.70
2018-08-16T02:59:50.448Z,1017.69
2018-08-16T03:00:50.461Z,1017.70
2018-08-16T03:01:50.481Z,1017.71
2018-08-16T03:02:50.507Z,1017.72
2018-08-16T03:03:50.533Z,1017.75
2018-08-16T03:04:50.551Z,1017.76
2018-08-16T03:05:50.579Z,1017.73
2018-08-16T03:06:50.603Z,1017.75
2018-08-16T03:07:50.623Z,1017.75
2018-08-16T03:08:50.649Z,1017.79
2018-08-16T03:09:50.674Z,1017.80
2018-08-16T03:10:50.699Z,1017.80
2018-08-16T03:11:50.721Z,1017.80
2018-08-16T03:12:50.746Z,1017.76
2018-08-16T03:13:50.774Z,1017.75
2018-08-16T03:14:50.794Z,1017.73
2018-08-16T03:15:50.815Z,1017.76
2018-08-16T03:16:50.836Z,1017.72
2018-08-16T03:17:50.864Z,1017.67
2018-08-16T03:18:50.888Z,1017.66
2018-08-16T03:19:50.913Z,1017.66
2018-08-16T03:20:50.940Z,1017.64
2018-08-16T03:21:50.957Z,1017.67
2018-08-16T03:22:50.982Z,1017.63
2018-08-16T03:23:51.008Z,1017.71
2018-08-16T03:24:51.035Z,1017.70
2018-08-16T03:25:51.060Z,1017.70
2018-08-16T03:26:51.084Z,1017.67
2018-08-16T03:27:51.098Z,1017.70
2018-08-16T03:28:51.130Z,1017.64
2018-08-16T03:29:51.153Z,1017.69
2018-08-16T03:30:51.179Z,1017.67
2018-08-16T03:31:51.195Z,1017.70
2018-08-16T03:32:51.224Z,1017.67
2018-08-16T03:33:51.248Z,1017.70
2018-08-16T03:34:51.270Z,1017.70
2018-08-16T03:35:51.297Z,1017.70
2018-08-16T03:36:51.317Z,1017.68
2018-08-16T03:37:51.340Z,1017.70
2018-08-16T03:38:51.370Z,1017.69
2018-08-16T03:39:51.390Z,1017.67
2018-08-16T03:40:51.416Z,1017.65
2018-08-16T03:41:51.436Z,1017.67
2018-08-16T03:42:51.462Z,1017.64
2018-08-16T03:43:51.487Z,1017.66
2018-08-16T03:44:51.519Z,1017.68
2018-08-16T03:45:51.540Z,1017.66
2018-08-16T03:46:51.555Z,1017.66
2018-08-16T03:47:51.581Z,1017.63
2018-08-16T03:48:51.609Z,1017.62
2018-08-16T03:49:51.628Z,1017.64
2018-08-16T03:50:51.660Z,1017.64
2018-08-16T03:51:51.679Z,1017.61
2018-08-16T03:52:51.705Z,1017.60
2018-08-16T03:53:51.727Z,1017.57
2018-08-16T03:54:51.751Z,1017.61
2018-08-16T03:55:51.775Z,1017.55
2018-08-16T03:56:51.796Z,1017.57
2018-08-16T03:57:51.823Z,1017.56
2018-08-16T03:58:51.847Z,1017.55
2018-08-16T03:59:51.869Z,1017.52
2018-08-16T04:00:51.901Z,1017.51
2018-08-16T04:01:51.914Z,1017.55
2018-08-16T04:02:51.943Z,1017.55
2018-08-16T04:03:51.965Z,1017.49
2018-08-16T04:04:51.987Z,1017.52
2018-08-16T04:05:52.011Z,1017.54
2018-08-16T04:06:52.035Z,1017.53
2018-08-16T04:07:52.062Z,1017.55
2018-08-16T04:08:52.087Z,1017.49
2018-08-16T04:09:52.108Z,1017.48
2018-08-16T04:10:52.138Z,1017.49
2018-08-16T04:11:52.162Z,1017.46
2018-08-16T04:12:52.181Z,1017.48
2018-08-16T04:13:52.205Z,1017.52
2018-08-16T04:14:52.228Z,1017.48
2018-08-16T04:15:52.247Z,1017.48
2018-08-16T04:16:52.275Z,1017.47
2018-08-16T04:17:52.297Z,1017.48
2018-08-16T04:18:52.323Z,1017.48
2018-08-16T04:19:52.349Z,1017.47
2018-08-16T04:20:52.371Z,1017.48
2018-08-16T04:21:52.396Z,1017.48
2018-08-16T04:22:52.416Z,1017.48
2018-08-16T04:23:52.445Z,1017.47
2018-08-16T04:24:52.471Z,1017.50
2018-08-16T04:25:52.491Z,1017.46
2018-08-16T04:26:52.516Z,1017.45
2018-08-16T04:27:52.536Z,1017.48
2018-08-16T04:28:52.558Z,1017.45
2018-08-16T04:29:52.584Z,1017.46
2018-08-16T04:30:52.602Z,1017.43
2018-08-16T04:31:52.630Z,1017.45
2018-08-16T04:32:52.658Z,1017.43
2018-08-16T04:33:52.678Z,1017.48
2018-08-16T04:34:52.703Z,1017.47
2018-08-16T04:35:52.734Z,1017.46
2018-08-16T04:36:52.752Z,1017.48
2018-08-16T04:37:52.772Z,1017.46
2018-08-16T04:38:52.796Z,1017.45
2018-08-16T04:39:52.823Z,1017.47
2018-08-16T04:40:52.843Z,1017.42
2018-08-16T04:41:52.883Z,1017.46
2018-08-16T04:42:52.898Z,1017.43
2018-08-16T04:43:52.915Z,1017.38
2018-08-16T04:44:52.942Z,1017.43
2018-08-16T04:45:52.966Z,1017.43
2018-08-16T04:46:52.982Z,1017.43
2018-08-16T04:47:53.016Z,1017.45
2018-08-16T04:48:53.032Z,1017.44
2018-08-16T04:49:53.062Z,1017.42
2018-08-16T04:50:53.093Z,1017.43
2018-08-16T04:51:53.103Z,1017.40
2018-08-16T04:52:53.129Z,1017.47
2018-08-16T04:53:53.154Z,1017.47
2018-08-16T04:54:53.180Z,1017.45
2018-08-16T04:55:53.206Z,1017.49
2018-08-16T04:56:53.242Z,1017.46
2018-08-16T04:57:53.251Z,1017.47
2018-08-16T04:58:53.274Z,1017.43
2018-08-16T04:59:53.296Z,1017.41
2018-08-16T05:00:53.324Z,1017.41
2018-08-16T05:01:53.344Z,1017.42
2018-08-16T05:02:53.375Z,1017.44
2018-08-16T05:03:53.394Z,1017.48
2018-08-16T05:04:53.422Z,1017.44
2018-08-16T05:05:53.442Z,1017.45
2018-08-16T05:06:53.466Z,1017.49
2018-08-16T05:07:53.490Z,1017.52
2018-08-16T05:08:53.513Z,1017.49
2018-08-16T05:09:53.536Z,1017.47
2018-08-16T05:10:53.561Z,1017.45
2018-08-16T05:11:53.590Z,1017.51
2018-08-16T05:12:53.611Z,1017.49
2018-08-16T05:13:53.632Z,1017.50
2018-08-16T05:14:53.661Z,1017.51
2018-08-16T05:15:53.684Z,1017.52
2018-08-16T05:16:53.703Z,1017.51
2018-08-16T05:17:53.723Z,1017.54
2018-08-16T05:18:53.750Z,1017.55
2018-08-16T05:19:53.782Z,1017.51
2018-08-16T05:20:53.800Z,1017.54
2018-08-16T05:21:53.814Z,1017.53
2018-08-16T05:22:53.843Z,1017.56
2018-08-16T05:23:53.910Z,1017.57
2018-08-16T05:24:53.892Z,1017.56
2018-08-16T05:25:53.920Z,1017.54
2018-08-16T05:26:53.947Z,1017.58
2018-08-16T05:27:53.963Z,1017.57
2018-08-16T05:28:53.999Z,1017.56
2018-08-16T05:29:54.012Z,1017.54
2018-08-16T05:30:54.038Z,1017.54
2018-08-16T05:31:54.064Z,1017.53
2018-08-16T05:32:54.084Z,1017.55
2018-08-16T05:33:54.109Z,1017.54
2018-08-16T05:34:54.130Z,1017.55
2018-08-16T05:35:54.162Z,1017.52
2018-08-16T05:36:54.190Z,1017.51
2018-08-16T05:37:54.203Z,1017.52
2018-08-16T05:38:54.223Z,1017.53
2018-08-16T05:39:54.252Z,1017.53
2018-08-16T05:40:54.279Z,1017.54
2018-08-16T05:41:54.297Z,1017.53
2018-08-16T05:42:54.381Z,1017.50
2018-08-16T05:43:54.346Z,1017.48
2018-08-16T05:44:54.371Z,1017.49
2018-08-16T05:45:54.462Z,1017.48
2018-08-16T05:46:54.422Z,1017.50
2018-08-16T05:47:54.449Z,1017.50
2018-08-16T05:48:54.469Z,1017.52
2018-08-16T05:49:54.491Z,1017.53
2018-08-16T05:50:54.575Z,1017.51
2018-08-16T05:51:54.544Z,1017.51
2018-08-16T05:52:54.563Z,1017.46
2018-08-16T05:53:54.588Z,1017.49
2018-08-16T05:54:54.614Z,1017.47
2018-08-16T05:55:54.634Z,1017.42
2018-08-16T05:56:54.666Z,1017.40
2018-08-16T05:57:54.687Z,1017.42
2018-08-16T05:58:54.709Z,1017.40
2018-08-16T05:59:54.738Z,1017.39
2018-08-16T06:00:54.760Z,1017.37
2018-08-16T06:01:54.782Z,1017.41
2018-08-16T06:02:54.806Z,1017.36
2018-08-16T06:03:54.838Z,1017.36
2018-08-16T06:04:54.853Z,1017.41
2018-08-16T06:05:54.880Z,1017.43
2018-08-16T06:06:54.906Z,1017.41
2018-08-16T06:07:54.929Z,1017.39
2018-08-16T06:08:54.952Z,1017.41
2018-08-16T06:09:54.984Z,1017.43
2018-08-16T06:10:54.998Z,1017.41
2018-08-16T06:11:55.022Z,1017.44
2018-08-16T06:12:55.048Z,1017.40
2018-08-16T06:13:55.071Z,1017.39
2018-08-16T06:14:55.096Z,1017.36
2018-08-16T06:15:55.139Z,1017.42
2018-08-16T06:16:55.149Z,1017.40
2018-08-16T06:17:55.172Z,1017.38
2018-08-16T06:18:55.191Z,1017.39
2018-08-16T06:19:55.219Z,1017.42
2018-08-16T06:20:55.249Z,1017.41
2018-08-16T06:21:55.267Z,1017.40
2018-08-16T06:22:55.294Z,1017.42
2018-08-16T06:23:55.358Z,1017.40
2018-08-16T06:24:55.342Z,1017.43
2018-08-16T06:25:55.362Z,1017.40
2018-08-16T06:26:55.384Z,1017.41
2018-08-16T06:27:55.412Z,1017.41
2018-08-16T06:28:55.438Z,1017.40
2018-08-16T06:29:55.458Z,1017.40
2018-08-16T06:30:55.494Z,1017.39
2018-08-16T06:31:55.510Z,1017.39
2018-08-16T06:32:55.531Z,1017.39
2018-08-16T06:33:55.562Z,1017.34
2018-08-16T06:34:55.578Z,1017.34
2018-08-16T06:35:55.610Z,1017.34
2018-08-16T06:36:55.640Z,1017.36
2018-08-16T06:37:55.649Z,1017.37
2018-08-16T06:38:55.702Z,1017.33
2018-08-16T06:39:55.708Z,1017.31
2018-08-16T06:40:55.746Z,1017.30
2018-08-16T06:41:55.757Z,1017.34
2018-08-16T06:42:55.782Z,1017.36
2018-08-16T06:43:55.809Z,1017.32
2018-08-16T06:44:55.829Z,1017.34
2018-08-16T06:45:55.851Z,1017.38
2018-08-16T06:46:55.876Z,1017.40
2018-08-16T06:47:55.900Z,1017.37
2018-08-16T06:48:55.932Z,1017.34
2018-08-16T06:49:55.951Z,1017.36
2018-08-16T06:50:55.978Z,1017.38
2018-08-16T06:51:56.003Z,1017.33
2018-08-16T06:52:56.026Z,1017.34
2018-08-16T06:53:56.046Z,1017.31
2018-08-16T06:54:56.070Z,1017.36
2018-08-16T06:55:56.102Z,1017.33
2018-08-16T06:56:56.124Z,1017.34
2018-08-16T06:57:56.154Z,1017.27
2018-08-16T06:58:56.172Z,1017.28
2018-08-16T06:59:56.200Z,1017.28
2018-08-16T07:00:56.222Z,1017.28
2018-08-16T07:01:56.252Z,1017.29
2018-08-16T07:02:56.270Z,1017.22
2018-08-16T07:03:56.299Z,1017.22
2018-08-16T07:04:56.400Z,1017.19
2018-08-16T07:05:56.347Z,1017.22
2018-08-16T07:06:56.373Z,1017.21
2018-08-16T07:07:56.400Z,1017.23
2018-08-16T07:08:56.427Z,1017.20
2018-08-16T07:09:56.446Z,1017.24
2018-08-16T07:10:56.470Z,1017.20
2018-08-16T07:11:56.502Z,1017.17
2018-08-16T07:12:56.518Z,1017.15
2018-08-16T07:13:56.546Z,1017.18
2018-08-16T07:14:56.572Z,1017.18
2018-08-16T07:15:56.599Z,1017.18
2018-08-16T07:16:56.620Z,1017.14
2018-08-16T07:17:56.646Z,1017.18
2018-08-16T07:18:56.678Z,1017.12
2018-08-16T07:19:56.692Z,1017.10
2018-08-16T07:20:56.718Z,1017.12
2018-08-16T07:21:56.746Z,1017.13
2018-08-16T07:22:56.770Z,1017.16
2018-08-16T07:23:56.789Z,1017.17
2018-08-16T07:24:56.905Z,1017.22
2018-08-16T07:25:56.843Z,1017.22
2018-08-16T07:26:56.869Z,1017.17
2018-08-16T07:27:56.902Z,1017.20
2018-08-16T07:28:56.922Z,1017.16
2018-08-16T07:29:56.979Z,1017.16
2018-08-16T07:30:56.973Z,1017.18
2018-08-16T07:31:56.994Z,1017.21
2018-08-16T07:32:57.026Z,1017.24
2018-08-16T07:33:57.047Z,1017.22
2018-08-16T07:34:57.072Z,1017.22
2018-08-16T07:35:57.102Z,1017.23
2018-08-16T07:36:57.120Z,1017.25
2018-08-16T07:37:57.142Z,1017.25
2018-08-16T07:38:57.172Z,1017.22
2018-08-16T07:39:57.202Z,1017.22
2018-08-16T07:40:57.221Z,1017.24
2018-08-16T07:41:57.248Z,1017.21
2018-08-16T07:42:57.283Z,1017.15
2018-08-16T07:43:57.318Z,1017.15
2018-08-16T07:44:57.345Z,1017.11
2018-08-16T07:45:57.441Z,1017.09
2018-08-16T07:46:57.377Z,1017.05
2018-08-16T07:47:57.408Z,1017.08
2018-08-16T07:48:57.431Z,1016.99
2018-08-16T07:49:57.469Z,1017.00
2018-08-16T07:50:57.482Z,1017.02
2018-08-16T07:51:57.569Z,1017.03
2018-08-16T07:52:57.537Z,1017.07
2018-08-16T07:53:57.560Z,1017.05
2018-08-16T07:54:57.590Z,1017.07
2018-08-16T07:55:57.606Z,1017.03
2018-08-16T07:56:57.695Z,1017.00
2018-08-16T07:57:57.661Z,1017.02
2018-08-16T07:58:57.686Z,1017.03
2018-08-16T07:59:57.710Z,1016.99
2018-08-16T08:00:57.736Z,1017.00
2018-08-16T08:01:57.760Z,1017.00
2018-08-16T08:02:57.791Z,1017.02
2018-08-16T08:03:57.813Z,1016.99
2018-08-16T08:04:57.840Z,1016.99
2018-08-16T08:05:57.872Z,1016.96
2018-08-16T08:06:57.899Z,1016.98
2018-08-16T08:07:57.927Z,1017.00
2018-08-16T08:08:57.974Z,1017.00
2018-08-16T08:09:57.974Z,1016.98
2018-08-16T08:10:57.992Z,1017.00
2018-08-16T08:11:58.024Z,1016.98
2018-08-16T08:12:58.051Z,1017.02
2018-08-16T08:13:58.078Z,1016.98
2018-08-16T08:14:58.098Z,1017.03
2018-08-16T08:15:58.134Z,1016.97
2018-08-16T08:16:58.155Z,1017.01
2018-08-16T08:17:58.172Z,1016.97
2018-08-16T08:18:58.208Z,1016.97
2018-08-16T08:19:58.226Z,1017.00
2018-08-16T08:20:58.264Z,1016.96
2018-08-16T08:21:58.276Z,1016.97
2018-08-16T08:22:58.308Z,1016.92
2018-08-16T08:23:58.334Z,1016.92
2018-08-16T08:24:58.358Z,1016.93
2018-08-16T08:25:58.380Z,1016.89
2018-08-16T08:26:58.404Z,1016.92
2018-08-16T08:27:58.436Z,1016.93
2018-08-16T08:28:58.464Z,1016.98
2018-08-16T08:29:58.487Z,1016.94
2018-08-16T08:30:58.505Z,1016.92
2018-08-16T08:31:58.538Z,1016.89
2018-08-16T08:32:58.568Z,1016.88
2018-08-16T08:33:58.591Z,1016.89
2018-08-16T08:34:58.615Z,1016.87
2018-08-16T08:35:58.641Z,1016.85
2018-08-16T08:36:58.672Z,1016.85
2018-08-16T08:37:58.697Z,1016.81
2018-08-16T08:38:58.812Z,1016.84
2018-08-16T08:39:58.748Z,1016.85
2018-08-16T08:40:58.773Z,1016.84
2018-08-16T08:41:58.806Z,1016.87
2018-08-16T08:42:58.826Z,1016.86
2018-08-16T08:43:58.860Z,1016.81
2018-08-16T08:44:58.880Z,1016.82
2018-08-16T08:45:58.906Z,1016.79
2018-08-16T08:46:58.930Z,1016.77
2018-08-16T08:47:58.956Z,1016.82
2018-08-16T08:48:58.983Z,1016.79
2018-08-16T08:49:59.014Z,1016.76
2018-08-16T08:50:59.042Z,1016.75
2018-08-16T08:51:59.052Z,1016.74
2018-08-16T08:52:59.086Z,1016.78
2018-08-16T08:53:59.110Z,1016.78
2018-08-16T08:54:59.138Z,1016.73
2018-08-16T08:55:59.172Z,1016.69
2018-08-16T08:56:59.188Z,1016.67
2018-08-16T08:57:59.216Z,1016.72
2018-08-16T08:58:59.240Z,1016.68
2018-08-16T08:59:59.280Z,1016.67
2018-08-16T09:00:59.296Z,1016.68
2018-08-16T09:01:59.323Z,1016.70
2018-08-16T09:02:59.345Z,1016.69
2018-08-16T09:03:59.376Z,1016.69
2018-08-16T09:04:59.401Z,1016.77
2018-08-16T09:05:59.437Z,1016.75
2018-08-16T09:06:59.480Z,1016.70
2018-08-16T09:07:59.489Z,1016.66
2018-08-16T09:08:59.510Z,1016.65
2018-08-16T09:09:59.536Z,1016.62
2018-08-16T09:10:59.562Z,1016.58
2018-08-16T09:11:59.586Z,1016.59
2018-08-16T09:12:59.620Z,1016.61
2018-08-16T09:13:59.636Z,1016.60
2018-08-16T09:14:59.666Z,1016.57
2018-08-16T09:15:59.698Z,1016.58
2018-08-16T09:16:59.721Z,1016.60
2018-08-16T09:17:59.749Z,1016.56
2018-08-16T09:18:59.793Z,1016.59
2018-08-16T09:19:59.800Z,1016.62
2018-08-16T09:20:59.826Z,1016.57
2018-08-16T09:21:59.858Z,1016.56
2018-08-16T09:22:59.884Z,1016.52
2018-08-16T09:23:59.942Z,1016.46
2018-08-16T09:24:59.936Z,1016.43
2018-08-16T09:25:59.965Z,1016.39
2018-08-16T09:26:59.988Z,1016.43
2018-08-16T09:28:00.025Z,1016.35
2018-08-16T09:29:00.060Z,1016.45
2018-08-16T09:30:00.070Z,1016.43
2018-08-16T09:31:00.143Z,1016.37
2018-08-16T09:32:00.127Z,1016.37
2018-08-16T09:33:00.158Z,1016.37
2018-08-16T09:34:00.188Z,1016.40
2018-08-16T09:35:00.206Z,1016.42
2018-08-16T09:36:00.230Z,1016.38
2018-08-16T09:37:00.260Z,1016.41
2018-08-16T09:38:00.287Z,1016.44
2018-08-16T09:39:00.315Z,1016.40
2018-08-16T09:40:00.343Z,1016.40
2018-08-16T09:41:00.368Z,1016.41
2018-08-16T09:42:00.392Z,1016.35
2018-08-16T09:43:00.420Z,1016.37
2018-08-16T09:44:00.447Z,1016.42
2018-08-16T09:45:00.478Z,1016.39
2018-08-16T09:46:00.504Z,1016.44
2018-08-16T09:47:00.525Z,1016.40
2018-08-16T09:48:00.554Z,1016.35
2018-08-16T09:49:00.584Z,1016.34
2018-08-16T09:50:00.603Z,1016.39
2018-08-16T09:51:00.636Z,1016.45
2018-08-16T09:52:00.661Z,1016.37
2018-08-16T09:53:00.688Z,1016.42
2018-08-16T09:54:00.718Z,1016.27
2018-08-16T09:55:00.738Z,1016.23
2018-08-16T09:56:00.769Z,1016.23
2018-08-16T09:57:00.792Z,1016.26
2018-08-16T09:58:00.824Z,1016.25
2018-08-16T09:59:00.850Z,1016.24
2018-08-16T10:00:00.874Z,1016.21
2018-08-16T10:01:00.905Z,1016.16
2018-08-16T10:02:00.994Z,1016.19
2018-08-16T10:03:00.960Z,1016.15
2018-08-16T10:04:00.980Z,1016.11
2018-08-16T10:05:01.016Z,1016.11
2018-08-16T10:06:01.044Z,1016.13
2018-08-16T10:07:01.078Z,1016.05
2018-08-16T10:08:01.098Z,1016.09
2018-08-16T10:09:01.127Z,1016.12
2018-08-16T10:10:01.154Z,1016.14
2018-08-16T10:11:01.180Z,1016.11
2018-08-16T10:12:01.204Z,1016.13
2018-08-16T10:13:01.229Z,1016.03
2018-08-16T10:14:01.262Z,1015.98
2018-08-16T10:15:01.290Z,1015.96
2018-08-16T10:16:01.314Z,1015.97
2018-08-16T10:17:01.344Z,1015.97
2018-08-16T10:18:01.374Z,1015.97
2018-08-16T10:19:01.404Z,1016.04
2018-08-16T10:20:01.424Z,1016.02
2018-08-16T10:21:01.454Z,1015.97
2018-08-16T10:22:01.478Z,1016.02
2018-08-16T10:23:01.509Z,1016.00
2018-08-16T10:24:01.536Z,1016.00
2018-08-16T10:25:01.576Z,1016.00
2018-08-16T10:26:01.590Z,1015.90
2018-08-16T10:27:01.681Z,1015.91
2018-08-16T10:28:01.653Z,1016.03
2018-08-16T10:29:01.672Z,1015.98
2018-08-16T10:30:01.703Z,1016.04
2018-08-16T10:31:01.731Z,1016.07
2018-08-16T10:32:01.754Z,1015.97
2018-08-16T10:33:01.782Z,1015.93
2018-08-16T10:34:01.813Z,1015.95
2018-08-16T10:35:01.844Z,1015.90
2018-08-16T10:36:01.868Z,1015.93
2018-08-16T10:37:01.909Z,1015.96
2018-08-16T10:38:01.931Z,1015.96
2018-08-16T10:39:01.952Z,1016.03
2018-08-16T10:40:01.974Z,1015.96
2018-08-16T10:41:02.008Z,1015.90
2018-08-16T10:42:02.035Z,1015.86
2018-08-16T10:43:02.060Z,1015.96
2018-08-16T10:44:02.098Z,1015.89
2018-08-16T10:45:02.120Z,1015.96
2018-08-16T10:46:02.149Z,1015.96
2018-08-16T10:47:02.173Z,1015.98
2018-08-16T10:48:02.204Z,1015.92
2018-08-16T10:49:02.230Z,1015.96
2018-08-16T10:50:02.252Z,1015.93
2018-08-16T10:51:02.282Z,1015.94
2018-08-16T10:52:02.309Z,1015.99
2018-08-16T10:53:02.339Z,1016.06
2018-08-16T10:54:02.363Z,1016.09
2018-08-16T10:55:02.395Z,1016.18
2018-08-16T10:56:02.421Z,1016.21
2018-08-16T10:57:02.452Z,1016.24
2018-08-16T10:58:02.473Z,1016.17
2018-08-16T10:59:02.511Z,1016.23
2018-08-16T11:00:02.567Z,1016.37
2018-08-16T11:01:02.565Z,1016.04
2018-08-16T11:02:02.592Z,1016.06
2018-08-16T11:03:02.628Z,1016.11
2018-08-16T11:04:02.652Z,1016.36
2018-08-16T11:05:02.683Z,1016.36
2018-08-16T11:06:02.713Z,1016.32
2018-08-16T11:07:02.745Z,1016.33
2018-08-16T11:08:02.776Z,1016.42
2018-08-16T11:09:02.801Z,1016.38
2018-08-16T11:10:02.838Z,1016.35
2018-08-16T11:11:02.871Z,1016.35
2018-08-16T11:12:02.903Z,1016.35
2018-08-16T11:13:02.932Z,1016.41
2018-08-16T11:14:02.964Z,1016.43
2018-08-16T11:15:02.994Z,1016.43
2018-08-16T11:16:03.031Z,1016.46
2018-08-16T11:17:03.068Z,1016.46
2018-08-16T11:18:03.093Z,1016.49
2018-08-16T11:19:03.141Z,1016.46
2018-08-16T11:20:03.173Z,1016.45
2018-08-16T11:21:03.207Z,1016.36
2018-08-16T11:22:03.232Z,1016.23
2018-08-16T11:23:03.277Z,1016.43
2018-08-16T11:24:03.307Z,1016.38
2018-08-16T11:25:03.340Z,1016.39
2018-08-16T11:26:03.381Z,1016.31
2018-08-16T11:27:03.414Z,1016.20
2018-08-16T11:28:03.454Z,1015.96
2018-08-16T11:29:03.484Z,1015.94
2018-08-16T11:30:03.521Z,1015.95
2018-08-16T11:31:03.559Z,1016.16
2018-08-16T11:32:03.599Z,1016.44
2018-08-16T11:33:03.626Z,1016.49
2018-08-16T11:34:03.663Z,1016.57
2018-08-16T11:35:03.718Z,1016.52
2018-08-16T11:36:03.734Z,1016.17
2018-08-16T11:37:03.769Z,1016.16
2018-08-16T11:38:03.805Z,1016.22
2018-08-16T11:39:03.843Z,1016.06
2018-08-16T11:40:03.873Z,1016.06
2018-08-16T11:41:03.909Z,1016.04
2018-08-16T11:42:03.939Z,1016.12
2018-08-16T11:43:03.975Z,1016.43
2018-08-16T11:44:04.015Z,1016.55
2018-08-16T11:45:04.049Z,1016.48
2018-08-16T11:46:04.085Z,1016.40
2018-08-16T11:47:04.122Z,1016.32
2018-08-16T11:48:04.153Z,1016.10
2018-08-16T11:49:04.192Z,1016.07
2018-08-16T11:50:04.223Z,1016.08
2018-08-16T11:51:04.263Z,1016.16
2018-08-16T11:52:04.291Z,1016.19
2018-08-16T11:53:04.325Z,1016.52
2018-08-16T11:54:04.361Z,1016.36
2018-08-16T11:55:04.401Z,1016.55
2018-08-16T11:56:04.433Z,1016.45
2018-08-16T11:57:04.473Z,1016.43
2018-08-16T11:58:04.505Z,1016.08
2018-08-16T11:59:04.549Z,1016.11
2018-08-16T12:00:04.569Z,1016.02
2018-08-16T12:01:04.610Z,1015.97
2018-08-16T12:02:04.673Z,1016.21
2018-08-16T12:03:04.679Z,1015.95
2018-08-16T12:04:04.712Z,1015.96
2018-08-16T12:05:04.763Z,1016.35
2018-08-16T12:06:04.786Z,1016.41
2018-08-16T12:07:04.820Z,1016.48
2018-08-16T12:08:04.855Z,1016.44